createdAt,value
2017-06-21T00:00:26.006Z,0
2017-06-21T00:01:06.835Z,0
2017-06-21T00:01:47.281Z,0
2017-06-21T00:02:28.139Z,0
2017-06-21T00:03:08.691Z,0
2017-06-21T00:03:49.187Z,0
2017-06-21T00:04:29.965Z,0
2017-06-21T00:05:10.825Z,0
2017-06-21T00:05:51.567Z,0
2017-06-21T00:06:32.162Z,0
2017-06-21T00:07:12.678Z,0
2017-06-21T00:07:54.160Z,0
2017-06-21T00:08:34.692Z,0
2017-06-21T00:09:15.531Z,0
2017-06-21T00:09:56.184Z,0
2017-06-21T00:10:36.935Z,0
2017-06-21T00:11:17.792Z,0
2017-06-21T00:11:58.327Z,0
2017-06-21T00:12:38.867Z,0
2017-06-21T00:13:19.370Z,0
2017-06-21T00:13:59.853Z,0
2017-06-21T00:14:40.358Z,0
2017-06-21T00:15:20.844Z,0
2017-06-21T00:16:01.416Z,0
2017-06-21T00:16:41.976Z,0
2017-06-21T00:17:22.438Z,0
2017-06-21T00:18:02.977Z,0
2017-06-21T00:18:43.512Z,0
2017-06-21T00:19:24.127Z,0
2017-06-21T00:20:04.640Z,0
2017-06-21T00:20:45.488Z,0
2017-06-21T00:21:25.931Z,0
2017-06-21T00:22:06.682Z,0
2017-06-21T00:22:47.225Z,0
2017-06-21T00:23:28.393Z,0
2017-06-21T00:24:09.013Z,0
2017-06-21T00:24:49.531Z,0
2017-06-21T00:25:30.047Z,0
2017-06-21T00:26:10.513Z,0
2017-06-21T00:26:51.240Z,0
2017-06-21T00:27:31.811Z,0
2017-06-21T00:28:12.335Z,0
2017-06-21T00:28:52.866Z,0
2017-06-21T00:29:33.498Z,0
2017-06-21T00:30:14.109Z,0
2017-06-21T00:30:54.787Z,0
2017-06-21T00:31:35.347Z,0
2017-06-21T00:32:15.762Z,0
2017-06-21T00:32:56.528Z,0
2017-06-21T00:33:37.155Z,0
2017-06-21T00:34:17.622Z,0
2017-06-21T00:34:57.958Z,0
2017-06-21T00:35:38.420Z,0
2017-06-21T00:36:18.850Z,0
2017-06-21T00:36:59.341Z,0
2017-06-21T00:37:39.996Z,0
2017-06-21T00:38:21.831Z,0
2017-06-21T00:39:00.975Z,0
2017-06-21T00:39:41.463Z,0
2017-06-21T00:40:21.953Z,0
2017-06-21T00:41:02.529Z,0
2017-06-21T00:41:43.051Z,0
2017-06-21T00:42:23.537Z,0
2017-06-21T00:43:04.058Z,0
2017-06-21T00:43:44.744Z,0
2017-06-21T00:44:25.144Z,0
2017-06-21T00:45:05.684Z,0
2017-06-21T00:45:46.201Z,0
2017-06-21T00:46:26.743Z,0
2017-06-21T00:47:07.462Z,0
2017-06-21T00:47:47.714Z,0
2017-06-21T00:48:28.176Z,0
2017-06-21T00:49:08.646Z,0
2017-06-21T00:49:49.204Z,0
2017-06-21T00:50:29.733Z,0
2017-06-21T00:51:10.180Z,0
2017-06-21T00:51:50.618Z,0
2017-06-21T00:52:31.198Z,0
2017-06-21T00:53:11.648Z,0
2017-06-21T00:53:52.152Z,0
2017-06-21T00:54:32.781Z,0
2017-06-21T00:55:13.365Z,0
2017-06-21T00:55:53.786Z,0
2017-06-21T00:56:34.380Z,0
2017-06-21T00:57:14.794Z,0
2017-06-21T00:57:55.263Z,0
2017-06-21T00:58:35.866Z,0
2017-06-21T00:59:16.452Z,0
2017-06-21T00:59:57.160Z,0
2017-06-21T01:00:38.107Z,0
2017-06-21T01:01:18.612Z,0
2017-06-21T01:01:59.149Z,0
2017-06-21T01:02:40.711Z,0
2017-06-21T01:03:21.938Z,0
2017-06-21T01:04:03.327Z,0
2017-06-21T01:04:43.925Z,0
2017-06-21T01:05:24.934Z,0
2017-06-21T01:06:05.865Z,0
2017-06-21T01:06:46.761Z,0
2017-06-21T01:07:27.486Z,0
2017-06-21T01:08:08.421Z,0
2017-06-21T01:08:49.555Z,0
2017-06-21T01:09:31.007Z,0
2017-06-21T01:10:11.389Z,0
2017-06-21T01:10:51.825Z,0
2017-06-21T01:11:32.715Z,0
2017-06-21T01:12:13.528Z,0
2017-06-21T01:12:54.587Z,0
2017-06-21T01:13:34.845Z,0
2017-06-21T01:14:15.823Z,0
2017-06-21T01:14:56.349Z,0
2017-06-21T01:15:36.917Z,0
2017-06-21T01:16:17.810Z,0
2017-06-21T01:16:58.420Z,0
2017-06-21T01:17:39.436Z,0
2017-06-21T01:18:20.277Z,0
2017-06-21T01:19:01.324Z,0
2017-06-21T01:19:42.057Z,0
2017-06-21T01:20:22.935Z,0
2017-06-21T01:21:03.350Z,0
2017-06-21T01:21:44.049Z,0
2017-06-21T01:22:24.555Z,0
2017-06-21T01:23:05.045Z,0
2017-06-21T01:23:45.537Z,0
2017-06-21T01:24:26.081Z,0
2017-06-21T01:25:06.511Z,0
2017-06-21T01:25:47.063Z,0
2017-06-21T01:26:27.597Z,0
2017-06-21T01:27:08.065Z,0
2017-06-21T01:27:48.703Z,0
2017-06-21T01:28:29.277Z,0
2017-06-21T01:29:09.755Z,0
2017-06-21T01:29:50.268Z,0
2017-06-21T01:30:30.747Z,0
2017-06-21T01:31:11.345Z,0
2017-06-21T01:31:51.797Z,0
2017-06-21T01:32:32.303Z,0
2017-06-21T01:33:12.769Z,0
2017-06-21T01:33:53.305Z,0
2017-06-21T01:34:33.832Z,0
2017-06-21T01:35:14.378Z,0
2017-06-21T01:35:54.814Z,0
2017-06-21T01:36:35.290Z,0
2017-06-21T01:39:01.410Z,0
2017-06-21T01:39:50.029Z,0
2017-06-21T01:40:39.358Z,0
2017-06-21T01:41:27.955Z,0
2017-06-21T01:42:16.801Z,0
2017-06-21T01:43:05.897Z,0
2017-06-21T01:43:54.387Z,0
2017-06-21T01:44:44.004Z,0
2017-06-21T01:45:32.877Z,0
2017-06-21T01:46:21.568Z,0
2017-06-21T01:47:10.462Z,0
2017-06-21T01:51:19.031Z,0
2017-06-21T01:52:08.130Z,0
2017-06-21T01:52:56.886Z,0
2017-06-21T01:53:45.608Z,0
2017-06-21T01:54:34.480Z,0
2017-06-21T01:55:23.619Z,0
2017-06-21T01:56:12.575Z,0
2017-06-21T01:57:01.044Z,0
2017-06-21T01:57:49.948Z,0
2017-06-21T01:58:38.873Z,0
2017-06-21T01:59:27.874Z,0
2017-06-21T02:00:16.422Z,0
2017-06-21T02:01:04.929Z,0
2017-06-21T02:01:53.742Z,0
2017-06-21T02:02:42.418Z,0
2017-06-21T02:03:30.975Z,0
2017-06-21T02:04:19.603Z,0
2017-06-21T02:05:08.442Z,0
2017-06-21T02:05:57.051Z,0
2017-06-21T02:06:45.997Z,0
2017-06-21T02:07:34.756Z,0
2017-06-21T02:08:23.292Z,0
2017-06-21T02:09:12.901Z,0
2017-06-21T02:10:01.811Z,0
2017-06-21T02:10:50.402Z,0
2017-06-21T02:11:39.173Z,0
2017-06-21T02:12:27.657Z,0
2017-06-21T02:13:16.786Z,0
2017-06-21T02:14:05.519Z,0
2017-06-21T02:14:54.173Z,0
2017-06-21T02:15:42.942Z,0
2017-06-21T02:16:31.603Z,0
2017-06-21T02:17:20.397Z,0
2017-06-21T02:18:08.676Z,0
2017-06-21T02:18:57.458Z,0
2017-06-21T02:19:46.008Z,0
2017-06-21T02:20:35.023Z,0
2017-06-21T02:21:23.698Z,0
2017-06-21T02:22:12.172Z,0
2017-06-21T02:23:01.353Z,0
2017-06-21T02:23:50.363Z,0
2017-06-21T02:24:38.842Z,0
2017-06-21T02:25:27.459Z,0
2017-06-21T02:26:16.097Z,0
2017-06-21T02:27:04.131Z,0
2017-06-21T02:27:53.039Z,0
2017-06-21T02:28:41.820Z,0
2017-06-21T02:29:30.396Z,0
2017-06-21T02:30:19.080Z,0
2017-06-21T02:31:08.127Z,0
2017-06-21T02:31:56.580Z,0
2017-06-21T02:32:45.634Z,0
2017-06-21T02:33:34.288Z,0
2017-06-21T02:34:22.950Z,0
2017-06-21T02:35:11.406Z,0
2017-06-21T02:36:00.366Z,0
2017-06-21T02:36:48.879Z,0
2017-06-21T02:37:37.393Z,0
2017-06-21T02:38:22.119Z,0
2017-06-21T02:39:02.753Z,4
2017-06-21T02:39:43.317Z,4
2017-06-21T02:40:23.820Z,4
2017-06-21T02:41:04.378Z,0
2017-06-21T02:41:45.031Z,0
2017-06-21T02:42:25.570Z,0
2017-06-21T02:43:06.277Z,0
2017-06-21T02:43:46.806Z,4
2017-06-21T02:44:27.366Z,4
2017-06-21T02:45:07.800Z,4
2017-06-21T02:45:48.331Z,0
2017-06-21T02:46:28.844Z,4
2017-06-21T02:47:09.356Z,4
2017-06-21T02:47:49.830Z,4
2017-06-21T02:48:30.234Z,4
2017-06-21T02:49:10.871Z,4
2017-06-21T02:49:51.481Z,4
2017-06-21T02:50:32.033Z,4
2017-06-21T02:51:13.004Z,4
2017-06-21T02:51:53.582Z,8
2017-06-21T02:52:34.183Z,8
2017-06-21T02:53:14.756Z,8
2017-06-21T02:53:55.368Z,8
2017-06-21T02:54:35.836Z,8
2017-06-21T02:55:16.314Z,12
2017-06-21T02:55:56.838Z,12
2017-06-21T02:56:37.372Z,12
2017-06-21T02:57:17.816Z,12
2017-06-21T02:57:58.330Z,12
2017-06-21T02:58:38.855Z,16
2017-06-21T02:59:19.345Z,16
2017-06-21T02:59:59.847Z,20
2017-06-21T03:00:40.369Z,20
2017-06-21T03:01:20.827Z,24
2017-06-21T03:02:01.341Z,24
2017-06-21T03:02:41.778Z,28
2017-06-21T03:03:22.376Z,28
2017-06-21T03:04:02.840Z,32
2017-06-21T03:04:43.394Z,32
2017-06-21T03:05:23.852Z,36
2017-06-21T03:06:04.374Z,40
2017-06-21T03:06:44.855Z,44
2017-06-21T03:07:25.367Z,44
2017-06-21T03:08:05.952Z,48
2017-06-21T03:08:46.377Z,52
2017-06-21T03:09:26.852Z,56
2017-06-21T03:10:07.391Z,56
2017-06-21T03:10:47.982Z,64
2017-06-21T03:11:28.359Z,68
2017-06-21T03:12:09.014Z,72
2017-06-21T03:12:49.442Z,76
2017-06-21T03:13:29.872Z,80
2017-06-21T03:14:10.330Z,84
2017-06-21T03:14:50.844Z,92
2017-06-21T03:15:31.404Z,96
2017-06-21T03:16:11.896Z,100
2017-06-21T03:16:52.349Z,108
2017-06-21T03:17:32.840Z,112
2017-06-21T03:18:13.293Z,120
2017-06-21T03:18:53.860Z,128
2017-06-21T03:19:34.307Z,132
2017-06-21T03:20:14.921Z,140
2017-06-21T03:20:55.410Z,148
2017-06-21T03:21:35.935Z,156
2017-06-21T03:22:16.489Z,164
2017-06-21T03:22:56.927Z,176
2017-06-21T03:23:37.488Z,184
2017-06-21T03:24:17.997Z,192
2017-06-21T03:24:58.467Z,204
2017-06-21T03:25:38.942Z,212
2017-06-21T03:26:19.566Z,224
2017-06-21T03:27:00.051Z,236
2017-06-21T03:27:40.606Z,244
2017-06-21T03:28:21.096Z,256
2017-06-21T03:29:01.533Z,272
2017-06-21T03:29:42.016Z,284
2017-06-21T03:30:22.546Z,296
2017-06-21T03:31:03.059Z,312
2017-06-21T03:31:43.624Z,328
2017-06-21T03:32:24.866Z,344
2017-06-21T03:33:05.367Z,360
2017-06-21T03:33:45.901Z,384
2017-06-21T03:34:26.385Z,404
2017-06-21T03:35:06.857Z,420
2017-06-21T03:35:47.370Z,444
2017-06-21T03:36:27.874Z,468
2017-06-21T03:37:08.392Z,488
2017-06-21T03:37:48.923Z,508
2017-06-21T03:38:29.709Z,532
2017-06-21T03:39:10.290Z,548
2017-06-21T03:39:50.707Z,572
2017-06-21T03:40:31.325Z,596
2017-06-21T03:41:11.779Z,620
2017-06-21T03:41:52.331Z,644
2017-06-21T03:42:32.875Z,672
2017-06-21T03:43:13.373Z,696
2017-06-21T03:43:53.876Z,720
2017-06-21T03:44:34.371Z,752
2017-06-21T03:45:14.848Z,776
2017-06-21T03:45:55.350Z,812
2017-06-21T03:46:35.907Z,840
2017-06-21T03:47:16.536Z,872
2017-06-21T03:47:56.916Z,904
2017-06-21T03:48:37.368Z,940
2017-06-21T03:49:17.882Z,980
2017-06-21T03:49:58.333Z,1016
2017-06-21T03:50:38.955Z,1056
2017-06-21T03:51:19.456Z,1092
2017-06-21T03:51:59.961Z,1132
2017-06-21T03:52:40.474Z,1168
2017-06-21T03:53:21.079Z,1208
2017-06-21T03:54:01.594Z,1244
2017-06-21T03:54:42.036Z,1276
2017-06-21T03:55:22.457Z,1312
2017-06-21T03:56:02.957Z,1344
2017-06-21T03:56:43.522Z,1384
2017-06-21T03:57:23.959Z,1416
2017-06-21T03:58:04.599Z,1456
2017-06-21T03:58:44.999Z,1492
2017-06-21T03:59:25.602Z,1528
2017-06-21T04:00:06.088Z,1568
2017-06-21T04:00:46.539Z,1612
2017-06-21T04:01:27.009Z,1648
2017-06-21T04:02:07.549Z,1692
2017-06-21T04:02:48.071Z,1728
2017-06-21T04:03:28.541Z,1772
2017-06-21T04:04:09.014Z,1816
2017-06-21T04:04:49.532Z,1864
2017-06-21T04:05:30.072Z,1936
2017-06-21T04:06:10.547Z,2012
2017-06-21T04:06:51.044Z,2092
2017-06-21T04:07:31.650Z,2156
2017-06-21T04:08:12.410Z,2212
2017-06-21T04:08:52.701Z,2272
2017-06-21T04:09:33.211Z,2288
2017-06-21T04:10:13.745Z,2312
2017-06-21T04:10:54.268Z,2292
2017-06-21T04:11:34.839Z,2260
2017-06-21T04:12:15.306Z,2300
2017-06-21T04:12:55.856Z,2328
2017-06-21T04:13:36.358Z,2364
2017-06-21T04:14:16.859Z,2404
2017-06-21T04:14:57.491Z,2444
2017-06-21T04:15:38.105Z,2484
2017-06-21T04:16:18.490Z,2520
2017-06-21T04:16:58.962Z,2556
2017-06-21T04:17:39.508Z,2596
2017-06-21T04:18:20.055Z,2636
2017-06-21T04:19:00.541Z,2672
2017-06-21T04:19:41.004Z,2708
2017-06-21T04:20:21.718Z,2744
2017-06-21T04:21:02.226Z,2776
2017-06-21T04:21:42.804Z,2812
2017-06-21T04:22:23.473Z,2852
2017-06-21T04:23:03.950Z,2896
2017-06-21T04:23:45.324Z,2928
2017-06-21T04:24:25.809Z,2980
2017-06-21T04:25:06.318Z,3008
2017-06-21T04:25:46.815Z,3048
2017-06-21T04:26:27.397Z,3088
2017-06-21T04:27:07.837Z,3128
2017-06-21T04:27:48.299Z,3168
2017-06-21T04:28:28.823Z,3200
2017-06-21T04:29:09.283Z,3240
2017-06-21T04:29:50.387Z,3280
2017-06-21T04:30:30.935Z,3316
2017-06-21T04:31:11.474Z,3356
2017-06-21T04:31:51.909Z,3408
2017-06-21T04:32:33.639Z,3452
2017-06-21T04:35:13.197Z,3772
2017-06-21T04:36:02.318Z,3748
2017-06-21T04:36:50.728Z,3704
2017-06-21T04:37:41.107Z,3748
2017-06-21T04:38:29.136Z,3824
2017-06-21T04:39:17.688Z,3908
2017-06-21T04:40:06.805Z,4012
2017-06-21T04:40:55.455Z,4244
2017-06-21T04:41:43.960Z,4756
2017-06-21T04:42:33.695Z,5868
2017-06-21T04:43:31.673Z,8528
2017-06-21T04:47:22.856Z,6240
2017-06-21T04:48:03.611Z,4984
2017-06-21T04:48:44.088Z,4328
2017-06-21T04:49:24.742Z,4408
2017-06-21T04:50:05.276Z,4344
2017-06-21T04:50:45.772Z,4464
2017-06-21T04:51:29.784Z,4428
2017-06-21T04:52:10.550Z,4472
2017-06-21T04:52:51.168Z,4512
2017-06-21T04:53:32.524Z,4568
2017-06-21T04:54:13.090Z,4524
2017-06-21T04:54:53.592Z,4616
2017-06-21T04:55:34.093Z,4748
2017-06-21T04:56:14.657Z,4776
2017-06-21T04:56:55.156Z,5160
2017-06-21T04:57:35.652Z,4920
2017-06-21T04:58:18.111Z,4960
2017-06-21T04:58:58.570Z,4820
2017-06-21T04:59:39.127Z,4944
2017-06-21T05:00:19.667Z,4864
2017-06-21T05:01:00.247Z,4780
2017-06-21T05:01:40.868Z,4796
2017-06-21T05:02:31.273Z,4752
2017-06-21T05:03:11.800Z,4732
2017-06-21T05:07:38.155Z,5400
2017-06-21T05:08:26.857Z,5420
2017-06-21T05:09:10.653Z,5340
2017-06-21T05:09:51.111Z,5208
2017-06-21T05:10:31.791Z,5192
2017-06-21T05:11:12.624Z,5096
2017-06-21T05:11:53.222Z,5032
2017-06-21T05:12:34.051Z,4984
2017-06-21T05:13:14.995Z,5008
2017-06-21T05:13:55.472Z,5088
2017-06-21T05:14:35.936Z,5172
2017-06-21T05:15:17.419Z,5312
2017-06-21T05:15:58.024Z,5564
2017-06-21T05:16:38.568Z,6064
2017-06-21T05:17:19.090Z,6632
2017-06-21T05:17:59.603Z,7012
2017-06-21T05:18:41.575Z,7920
2017-06-21T05:19:22.111Z,6612
2017-06-21T05:20:02.671Z,6492
2017-06-21T05:20:43.171Z,5880
2017-06-21T05:21:23.729Z,5944
2017-06-21T05:22:04.236Z,6044
2017-06-21T05:22:44.769Z,6132
2017-06-21T05:23:25.258Z,6116
2017-06-21T05:24:05.721Z,6188
2017-06-21T05:24:46.292Z,6392
2017-06-21T05:25:26.759Z,7140
2017-06-21T05:26:07.329Z,7288
2017-06-21T05:26:47.871Z,9284
2017-06-21T05:27:28.316Z,11180
2017-06-21T05:28:08.823Z,12492
2017-06-21T05:28:49.328Z,10948
2017-06-21T05:29:29.889Z,8412
2017-06-21T05:30:10.321Z,7156
2017-06-21T05:30:50.833Z,6808
2017-06-21T05:31:31.517Z,6928
2017-06-21T05:32:12.009Z,6776
2017-06-21T05:32:52.667Z,7108
2017-06-21T05:33:33.203Z,7496
2017-06-21T05:34:13.751Z,7280
2017-06-21T05:34:54.424Z,7136
2017-06-21T05:35:35.638Z,6752
2017-06-21T05:36:17.441Z,6580
2017-06-21T05:36:58.027Z,6660
2017-06-21T05:39:21.728Z,6440
2017-06-21T05:40:02.302Z,6504
2017-06-21T05:40:42.703Z,6704
2017-06-21T05:41:23.285Z,6908
2017-06-21T05:42:03.765Z,6972
2017-06-21T05:42:44.287Z,7048
2017-06-21T05:43:24.824Z,7420
2017-06-21T05:44:05.292Z,7728
2017-06-21T05:44:45.843Z,8104
2017-06-21T05:45:26.275Z,7484
2017-06-21T05:46:07.106Z,7372
2017-06-21T05:46:47.579Z,7236
2017-06-21T05:47:28.290Z,7444
2017-06-21T05:48:08.676Z,8916
2017-06-21T05:48:49.234Z,7228
2017-06-21T05:49:29.787Z,8044
2017-06-21T05:50:10.319Z,7236
2017-06-21T05:50:50.817Z,7336
2017-06-21T05:51:31.358Z,7572
2017-06-21T05:52:11.848Z,7444
2017-06-21T05:52:52.395Z,7576
2017-06-21T05:53:33.177Z,10804
2017-06-21T05:54:13.726Z,7896
2017-06-21T05:54:54.306Z,9520
2017-06-21T05:55:34.751Z,9856
2017-06-21T05:56:15.307Z,10448
2017-06-21T05:56:55.742Z,11508
2017-06-21T05:57:36.321Z,9880
2017-06-21T05:58:16.771Z,9912
2017-06-21T05:58:57.318Z,10272
2017-06-21T05:59:37.848Z,10544
2017-06-21T06:00:18.346Z,8916
2017-06-21T06:00:58.917Z,9316
2017-06-21T06:01:39.451Z,9916
2017-06-21T06:02:19.903Z,10868
2017-06-21T06:03:00.402Z,11928
2017-06-21T06:03:40.916Z,12456
2017-06-21T06:04:21.455Z,12960
2017-06-21T06:05:01.994Z,14364
2017-06-21T06:05:42.464Z,15408
2017-06-21T06:06:22.985Z,15680
2017-06-21T06:07:03.432Z,15264
2017-06-21T06:07:43.957Z,14916
2017-06-21T06:08:24.488Z,14328
2017-06-21T06:09:05.088Z,12908
2017-06-21T06:09:45.704Z,10660
2017-06-21T06:10:26.270Z,10672
2017-06-21T06:11:06.859Z,11212
2017-06-21T06:11:47.476Z,12192
2017-06-21T06:12:28.094Z,13168
2017-06-21T06:13:08.589Z,14700
2017-06-21T06:13:49.416Z,15112
2017-06-21T06:14:30.229Z,14092
2017-06-21T06:15:10.784Z,13856
2017-06-21T06:15:51.289Z,12820
2017-06-21T06:16:31.818Z,13024
2017-06-21T06:17:12.297Z,11948
2017-06-21T06:17:52.794Z,13200
2017-06-21T06:18:33.264Z,12792
2017-06-21T06:19:13.844Z,12192
2017-06-21T06:19:54.409Z,11944
2017-06-21T06:20:34.985Z,11352
2017-06-21T06:22:33.880Z,12028
2017-06-21T06:23:14.337Z,11668
2017-06-21T06:23:54.827Z,11816
2017-06-21T06:24:35.398Z,12364
2017-06-21T06:25:15.905Z,12292
2017-06-21T06:25:56.326Z,12764
2017-06-21T06:26:36.885Z,12564
2017-06-21T06:27:17.383Z,10964
2017-06-21T06:27:57.930Z,13692
2017-06-21T06:28:38.513Z,14136
2017-06-21T06:29:19.006Z,14064
2017-06-21T06:29:59.533Z,13612
2017-06-21T06:30:41.088Z,13052
2017-06-21T06:31:21.686Z,12604
2017-06-21T06:32:02.040Z,12320
2017-06-21T06:32:42.610Z,12208
2017-06-21T06:33:23.103Z,12200
2017-06-21T06:34:03.623Z,10892
2017-06-21T06:34:44.109Z,10352
2017-06-21T06:35:24.860Z,10352
2017-06-21T06:36:06.247Z,10628
2017-06-21T06:36:46.732Z,10604
2017-06-21T06:37:27.283Z,10668
2017-06-21T06:38:07.759Z,10876
2017-06-21T06:38:48.266Z,10712
2017-06-21T06:39:28.784Z,10740
2017-06-21T06:40:09.297Z,10404
2017-06-21T06:40:50.049Z,9772
2017-06-21T06:41:31.132Z,9408
2017-06-21T06:42:11.499Z,9544
2017-06-21T06:42:52.058Z,9380
2017-06-21T06:43:33.028Z,9072
2017-06-21T06:44:13.794Z,8944
2017-06-21T06:44:54.173Z,9220
2017-06-21T06:45:34.615Z,8992
2017-06-21T06:46:15.128Z,8880
2017-06-21T06:46:55.682Z,8444
2017-06-21T06:47:36.252Z,8860
2017-06-21T06:48:16.846Z,9288
2017-06-21T06:48:57.346Z,9676
2017-06-21T06:49:37.876Z,9516
2017-06-21T06:50:18.387Z,9132
2017-06-21T06:50:58.869Z,8392
2017-06-21T06:51:39.338Z,9012
2017-06-21T06:52:19.835Z,8936
2017-06-21T06:53:00.345Z,8760
2017-06-21T06:53:41.698Z,9560
2017-06-21T06:54:22.019Z,9612
2017-06-21T06:55:02.680Z,9996
2017-06-21T06:55:43.165Z,10124
2017-06-21T06:56:24.068Z,9996
2017-06-21T06:57:04.160Z,9812
2017-06-21T06:57:44.668Z,10184
2017-06-21T06:58:25.207Z,10196
2017-06-21T06:59:05.706Z,9632
2017-06-21T06:59:46.612Z,9112
2017-06-21T07:00:27.125Z,8888
2017-06-21T07:01:07.844Z,8664
2017-06-21T07:01:48.309Z,8560
2017-06-21T07:02:28.858Z,8656
2017-06-21T07:03:09.331Z,8352
2017-06-21T07:05:30.024Z,8316
2017-06-21T07:06:19.320Z,8420
2017-06-21T07:07:05.896Z,8732
2017-06-21T07:07:54.986Z,8188
2017-06-21T07:08:43.655Z,7760
2017-06-21T07:09:32.493Z,8268
2017-06-21T07:10:16.536Z,8272
2017-06-21T07:10:56.995Z,8236
2017-06-21T07:11:37.616Z,8164
2017-06-21T07:12:18.137Z,8232
2017-06-21T07:12:58.647Z,8520
2017-06-21T07:13:39.244Z,8372
2017-06-21T07:14:19.811Z,8860
2017-06-21T07:15:00.347Z,9004
2017-06-21T07:15:41.441Z,9244
2017-06-21T07:16:21.902Z,9496
2017-06-21T07:17:02.436Z,9452
2017-06-21T07:17:42.937Z,9500
2017-06-21T07:18:23.575Z,9476
2017-06-21T07:19:04.150Z,9408
2017-06-21T07:19:45.309Z,9264
2017-06-21T07:20:25.874Z,9140
2017-06-21T07:21:06.363Z,9312
2017-06-21T07:21:47.015Z,8936
2017-06-21T07:22:27.461Z,9468
2017-06-21T07:23:07.958Z,9368
2017-06-21T07:23:48.449Z,9284
2017-06-21T07:24:29.221Z,9332
2017-06-21T07:25:09.636Z,9216
2017-06-21T07:25:50.136Z,9148
2017-06-21T07:26:30.634Z,9212
2017-06-21T07:27:11.274Z,9192
2017-06-21T07:27:51.964Z,9184
2017-06-21T07:28:33.342Z,9180
2017-06-21T07:29:13.897Z,9136
2017-06-21T07:29:54.389Z,9068
2017-06-21T07:30:34.893Z,9040
2017-06-21T07:31:15.519Z,8960
2017-06-21T07:31:56.087Z,8856
2017-06-21T07:32:36.564Z,8852
2017-06-21T07:33:17.106Z,8756
2017-06-21T07:33:57.599Z,8744
2017-06-21T07:34:38.271Z,8660
2017-06-21T07:35:18.813Z,8572
2017-06-21T07:35:59.383Z,8432
2017-06-21T07:36:40.045Z,8360
2017-06-21T07:37:20.383Z,8260
2017-06-21T07:38:01.723Z,8200
2017-06-21T07:38:42.210Z,8324
2017-06-21T07:39:22.763Z,8260
2017-06-21T07:40:03.241Z,8224
2017-06-21T07:40:43.795Z,8204
2017-06-21T07:41:24.308Z,8160
2017-06-21T07:42:04.846Z,8124
2017-06-21T07:42:45.312Z,8056
2017-06-21T07:43:25.834Z,8028
2017-06-21T07:44:06.368Z,7960
2017-06-21T07:44:46.890Z,7940
2017-06-21T07:45:27.432Z,7876
2017-06-21T07:46:08.002Z,7812
2017-06-21T07:46:48.418Z,7768
2017-06-21T07:47:28.975Z,7700
2017-06-21T07:48:09.605Z,7660
2017-06-21T07:48:50.366Z,7632
2017-06-21T07:49:30.807Z,7596
2017-06-21T07:50:11.250Z,7564
2017-06-21T07:50:51.764Z,7536
2017-06-21T07:51:32.214Z,7512
2017-06-21T07:52:12.809Z,6972
2017-06-21T07:52:53.400Z,7028
2017-06-21T07:53:33.849Z,7160
2017-06-21T07:54:14.332Z,7148
2017-06-21T07:54:54.839Z,7152
2017-06-21T07:55:35.444Z,7204
2017-06-21T07:56:15.978Z,7132
2017-06-21T07:56:56.634Z,7048
2017-06-21T07:57:37.023Z,7040
2017-06-21T07:58:17.449Z,7024
2017-06-21T07:58:57.968Z,6960
2017-06-21T07:59:38.545Z,6824
2017-06-21T08:00:18.991Z,6784
2017-06-21T08:00:59.453Z,6868
2017-06-21T08:01:40.203Z,6840
2017-06-21T08:02:20.597Z,6804
2017-06-21T08:03:01.308Z,6760
2017-06-21T08:03:42.046Z,6736
2017-06-21T08:04:22.804Z,6688
2017-06-21T08:05:03.280Z,6656
2017-06-21T08:05:43.944Z,6616
2017-06-21T08:06:24.425Z,6568
2017-06-21T08:07:05.073Z,6544
2017-06-21T08:07:45.534Z,6500
2017-06-21T08:08:26.032Z,6468
2017-06-21T08:09:06.545Z,6432
2017-06-21T08:09:47.037Z,6380
2017-06-21T08:10:27.611Z,6344
2017-06-21T08:11:08.159Z,6324
2017-06-21T08:11:48.698Z,6288
2017-06-21T08:12:29.473Z,6260
2017-06-21T08:13:10.115Z,6220
2017-06-21T08:13:50.674Z,6180
2017-06-21T08:14:31.124Z,6160
2017-06-21T08:15:16.829Z,6124
2017-06-21T08:17:33.595Z,6016
2017-06-21T08:18:14.097Z,5992
2017-06-21T08:18:54.727Z,5964
2017-06-21T08:19:35.233Z,5932
2017-06-21T08:20:15.762Z,5896
2017-06-21T08:20:56.304Z,5860
2017-06-21T08:21:36.877Z,5820
2017-06-21T08:22:18.365Z,5796
2017-06-21T08:22:58.987Z,5776
2017-06-21T08:23:39.566Z,5756
2017-06-21T08:24:20.125Z,5732
2017-06-21T08:25:00.668Z,5704
2017-06-21T08:25:41.378Z,5680
2017-06-21T08:26:21.887Z,5652
2017-06-21T08:27:02.431Z,5616
2017-06-21T08:27:42.975Z,5588
2017-06-21T08:28:23.433Z,5556
2017-06-21T08:29:03.944Z,5488
2017-06-21T08:29:44.409Z,5392
2017-06-21T08:30:25.917Z,5276
2017-06-21T08:31:06.454Z,5156
2017-06-21T08:31:46.999Z,5036
2017-06-21T08:32:27.547Z,4940
2017-06-21T08:33:08.187Z,4868
2017-06-21T08:33:48.611Z,4808
2017-06-21T08:34:29.250Z,4768
2017-06-21T08:35:09.743Z,4736
2017-06-21T08:35:50.466Z,4712
2017-06-21T08:36:30.998Z,4696
2017-06-21T08:37:11.528Z,4676
2017-06-21T08:37:52.076Z,4664
2017-06-21T08:38:32.552Z,4648
2017-06-21T08:39:13.256Z,4636
2017-06-21T08:39:53.809Z,4620
2017-06-21T08:40:34.413Z,4612
2017-06-21T08:41:15.010Z,4596
2017-06-21T08:41:55.598Z,4580
2017-06-21T08:42:36.335Z,4576
2017-06-21T08:43:16.867Z,4560
2017-06-21T08:43:57.395Z,4544
2017-06-21T08:44:38.057Z,4532
2017-06-21T08:45:18.986Z,4524
2017-06-21T08:45:59.490Z,4512
2017-06-21T08:46:40.178Z,4508
2017-06-21T08:47:20.757Z,4496
2017-06-21T08:48:01.273Z,4488
2017-06-21T08:48:41.786Z,4484
2017-06-21T08:49:22.282Z,4472
2017-06-21T08:50:03.185Z,4464
2017-06-21T08:50:43.637Z,4456
2017-06-21T08:51:24.192Z,4448
2017-06-21T08:52:05.211Z,4432
2017-06-21T08:52:45.921Z,4420
2017-06-21T08:53:26.611Z,4412
2017-06-21T08:54:07.477Z,4408
2017-06-21T08:54:47.957Z,4388
2017-06-21T08:55:28.445Z,4372
2017-06-21T08:56:10.462Z,4360
2017-06-21T08:56:51.311Z,4348
2017-06-21T08:57:34.006Z,4328
2017-06-21T08:58:14.933Z,4316
2017-06-21T08:58:56.752Z,4308
2017-06-21T08:59:36.960Z,4296
2017-06-21T09:00:17.482Z,4284
2017-06-21T09:00:58.365Z,4268
2017-06-21T09:01:39.187Z,4252
2017-06-21T09:02:20.403Z,4236
2017-06-21T09:03:01.593Z,4220
2017-06-21T09:03:42.236Z,4208
2017-06-21T09:04:23.107Z,4196
2017-06-21T09:05:04.018Z,4180
2017-06-21T09:05:44.813Z,4172
2017-06-21T09:06:27.631Z,4160
2017-06-21T09:09:12.176Z,4116
2017-06-21T09:10:03.251Z,4100
2017-06-21T09:10:53.187Z,4092
2017-06-21T09:11:42.249Z,4084
2017-06-21T09:12:30.823Z,4072
2017-06-21T09:13:20.613Z,4072
2017-06-21T09:14:10.058Z,4064
2017-06-21T09:15:00.411Z,4068
2017-06-21T09:15:49.266Z,4072
2017-06-21T09:16:38.804Z,4060
2017-06-21T09:17:28.717Z,4048
2017-06-21T09:18:18.810Z,4040
2017-06-21T09:19:07.641Z,4024
2017-06-21T09:19:57.086Z,4020
2017-06-21T09:20:44.926Z,4008
2017-06-21T09:21:34.372Z,4000
2017-06-21T09:22:23.288Z,3996
2017-06-21T09:23:12.940Z,3988
2017-06-21T09:24:02.266Z,3976
2017-06-21T09:24:50.857Z,3976
2017-06-21T09:25:39.631Z,3964
2017-06-21T09:26:28.393Z,3960
2017-06-21T09:27:17.845Z,3948
2017-06-21T09:28:06.669Z,3944
2017-06-21T09:28:55.241Z,3936
2017-06-21T09:29:44.634Z,3928
2017-06-21T09:30:33.309Z,3924
2017-06-21T09:31:22.398Z,3916
2017-06-21T09:32:14.185Z,3908
2017-06-21T09:33:03.094Z,3896
2017-06-21T09:33:51.827Z,3896
2017-06-21T09:34:40.409Z,3888
2017-06-21T09:35:29.081Z,3876
2017-06-21T09:36:20.499Z,3864
2017-06-21T09:37:08.709Z,3852
2017-06-21T09:37:57.907Z,3848
2017-06-21T09:38:46.696Z,3836
2017-06-21T09:39:37.333Z,3832
2017-06-21T09:40:25.849Z,3824
2017-06-21T09:41:15.130Z,3820
2017-06-21T09:42:05.911Z,3808
2017-06-21T09:42:54.721Z,3804
2017-06-21T09:43:43.818Z,3792
2017-06-21T09:44:33.002Z,3784
2017-06-21T09:46:55.396Z,3788
2017-06-21T09:47:44.029Z,3788
2017-06-21T09:48:33.451Z,3784
2017-06-21T09:49:21.609Z,3788
2017-06-21T09:50:11.092Z,3792
2017-06-21T09:51:00.700Z,3788
2017-06-21T09:51:50.346Z,3784
2017-06-21T09:52:39.425Z,3776
2017-06-21T09:53:28.408Z,3768
2017-06-21T09:54:16.922Z,3772
2017-06-21T09:55:05.099Z,3768
2017-06-21T09:55:46.593Z,3756
2017-06-21T09:56:29.920Z,3752
2017-06-21T09:57:10.488Z,3748
2017-06-21T09:57:51.095Z,3748
2017-06-21T09:58:31.696Z,3744
2017-06-21T09:59:12.192Z,3736
2017-06-21T09:59:52.687Z,3736
2017-06-21T10:00:33.278Z,3744
2017-06-21T10:01:14.901Z,3740